Rio Grande da Serra, Brazil
Current Conditions -  °F | °C
As of 3:00 PM on Sunday 21 Dec 2014 (Local Time) from SBSP Reporting Station
Broken Clouds Broken Clouds  
Wind Chill: 86°   Ceiling: 4500
Heat Index: 87°   Visibility: 6mi
Dew Point: 63°   Wind: 21mph
Humidity: 45%   Direction: 350°N
Pressure: 29.88"   Gusts: 32mph
Location:  23.8°S, 46.34°W
Report Text: SBSP 211700Z 35018G28KT 9999 BKN045 30/17 Q1012
Loading
Personal Weather Stations






























Interactive Weather Map New forecast layout! Learn more

10-Day Weather Forecast

Advertisements
Track Severe Weather on mobile